Toone, Tennessee
Current Conditions -  °F | °C
As of 5:21 PM on Monday 22 Dec 2014 (Local Time) from KMKL Reporting Station
Thunderstorm Thunderstorm  
Wind Chill: 55°   Ceiling: 800
Heat Index: 55°   Visibility: 10mi
Dew Point: 52°   Wind: 12mph
Humidity: 88%   Direction: 160°SSE
Pressure: 29.62"   Gusts: 23mph
Location:  35.35°N, 88.95°W
Report Text: KMKL 222321Z 16010G20KT 10SM VCTS OVC008 13/11 A2962 RMK AO2 LTG DSNT W TSB19
Loading
Personal Weather Stations






























Interactive Weather Map New forecast layout! Learn more

10-Day Weather Forecast

Advertisements
Track Severe Weather on mobile